createdAt,value
2024-04-24T00:01:59.777Z,21.64
2024-04-24T00:12:06.600Z,21.64
2024-04-24T00:22:13.216Z,21.64
2024-04-24T00:32:19.758Z,21.63
2024-04-24T00:42:26.066Z,21.63
2024-04-24T00:52:31.136Z,21.62
2024-04-24T01:02:38.231Z,21.61
2024-04-24T01:12:45.331Z,21.59
2024-04-24T01:23:19.546Z,21.57
2024-04-24T01:33:26.498Z,21.57
2024-04-24T01:43:36.347Z,21.56
2024-04-24T01:53:44.019Z,21.55
2024-04-24T02:03:50.875Z,21.55
2024-04-24T02:13:57.158Z,21.53
2024-04-24T02:24:03.608Z,21.53
2024-04-24T02:34:08.763Z,21.52
2024-04-24T02:44:15.422Z,21.52
2024-04-24T02:54:22.891Z,21.52
2024-04-24T03:04:29.576Z,21.51
2024-04-24T03:14:36.386Z,21.51
2024-04-24T03:24:44.969Z,21.51
2024-04-24T03:34:51.275Z,21.50
2024-04-24T03:44:57.932Z,21.50
2024-04-24T03:55:05.030Z,21.49
2024-04-24T04:05:11.470Z,21.49
2024-04-24T04:15:17.520Z,21.49
2024-04-24T04:25:24.448Z,21.49
2024-04-24T04:35:31.083Z,21.48
2024-04-24T04:45:37.887Z,21.47
2024-04-24T04:55:44.986Z,21.47
2024-04-24T05:05:51.810Z,21.47
2024-04-24T05:15:58.656Z,21.47
2024-04-24T05:26:26.215Z,21.49
2024-04-24T05:36:32.974Z,21.51
2024-04-24T05:46:39.461Z,21.52
2024-04-24T05:56:44.563Z,21.52
2024-04-24T06:06:53.870Z,21.52
2024-04-24T06:17:02.145Z,21.52
2024-04-24T06:27:09.013Z,21.52
2024-04-24T06:37:13.852Z,21.52
2024-04-24T06:47:34.348Z,21.53
2024-04-24T06:57:40.889Z,21.53
2024-04-24T07:07:48.036Z,21.50
2024-04-24T07:17:54.756Z,21.47
2024-04-24T07:28:02.018Z,21.48
2024-04-24T07:38:13.200Z,21.49
2024-04-24T07:48:21.923Z,21.50
2024-04-24T07:58:33.199Z,21.51
2024-04-24T08:08:42.206Z,21.57
2024-04-24T08:18:51.413Z,21.66
2024-04-24T08:28:58.975Z,21.73
2024-04-24T08:39:07.611Z,21.77
2024-04-24T08:49:16.074Z,21.76
2024-04-24T08:59:28.981Z,21.74
2024-04-24T09:09:36.925Z,21.73
2024-04-24T09:19:44.059Z,21.70
2024-04-24T09:29:50.808Z,21.69
2024-04-24T09:39:57.584Z,21.71
2024-04-24T09:50:04.965Z,21.73
2024-04-24T10:00:16.019Z,21.74
2024-04-24T10:10:30.361Z,21.72
2024-04-24T10:20:40.076Z,21.71
2024-04-24T10:30:48.387Z,21.72
2024-04-24T10:40:55.643Z,21.74
2024-04-24T10:51:03.683Z,21.76
2024-04-24T11:01:17.269Z,21.78
2024-04-24T11:11:26.597Z,21.79
2024-04-24T11:21:33.329Z,21.83
2024-04-24T11:31:43.485Z,21.85
2024-04-24T11:41:52.869Z,21.84
2024-04-24T11:51:59.425Z,21.83
2024-04-24T12:02:05.314Z,21.83
2024-04-24T12:12:13.541Z,21.84
2024-04-24T12:22:20.221Z,21.87
2024-04-24T12:32:29.276Z,21.88
2024-04-24T12:42:38.778Z,21.87
2024-04-24T12:52:46.379Z,21.85
2024-04-24T13:02:54.145Z,21.85
2024-04-24T13:13:01.701Z,21.85
2024-04-24T13:23:08.407Z,21.84
2024-04-24T13:33:14.977Z,21.84
2024-04-24T13:43:21.341Z,21.86
2024-04-24T13:53:28.169Z,21.86
2024-04-24T14:03:34.946Z,21.88
2024-04-24T14:13:41.998Z,21.88
2024-04-24T14:23:48.407Z,21.87
2024-04-24T14:33:55.714Z,21.87
2024-04-24T14:44:02.239Z,21.87
2024-04-24T14:54:08.631Z,21.88
2024-04-24T15:04:13.733Z,21.89
2024-04-24T15:14:20.982Z,21.90
2024-04-24T15:24:27.701Z,21.90
2024-04-24T15:34:37.411Z,21.93
2024-04-24T15:44:43.961Z,21.93
2024-04-24T15:54:50.609Z,21.94
2024-04-24T16:04:58.227Z,21.97
2024-04-24T16:15:05.293Z,22.00
2024-04-24T16:25:11.789Z,22.01
2024-04-24T16:35:19.269Z,22.02
2024-04-24T16:45:26.291Z,22.01
2024-04-24T16:55:33.294Z,22.02
2024-04-24T17:05:40.592Z,22.03
2024-04-24T17:15:47.252Z,22.02
2024-04-24T17:25:53.962Z,22.02
2024-04-24T17:36:00.500Z,22.02
2024-04-24T17:46:08.203Z,22.02
2024-04-24T17:56:15.022Z,22.03
2024-04-24T18:06:22.137Z,22.03
2024-04-24T18:16:29.250Z,22.07
2024-04-24T18:26:35.779Z,22.12
2024-04-24T18:36:42.302Z,22.14
2024-04-24T18:46:49.824Z,22.15
2024-04-24T18:56:56.905Z,22.15
2024-04-24T19:07:03.494Z,22.14
2024-04-24T19:17:10.103Z,22.13
2024-04-24T19:27:23.329Z,22.12
2024-04-24T19:37:37.355Z,22.11
2024-04-24T19:47:44.068Z,22.10
2024-04-24T19:57:51.221Z,22.10
2024-04-24T20:07:58.211Z,22.08
2024-04-24T20:18:05.064Z,22.07
2024-04-24T20:28:11.763Z,22.06
2024-04-24T20:38:18.872Z,22.05
2024-04-24T20:48:25.993Z,22.04
2024-04-24T20:58:33.347Z,22.04
2024-04-24T21:08:40.639Z,22.03
2024-04-24T21:18:47.355Z,22.04
2024-04-24T21:28:53.923Z,22.06
2024-04-24T21:39:02.583Z,22.05
2024-04-24T21:49:08.906Z,22.05
2024-04-24T21:59:14.722Z,22.06
2024-04-24T22:09:21.298Z,22.05
2024-04-24T22:19:31.393Z,22.04
2024-04-24T22:29:38.285Z,22.03
2024-04-24T22:39:44.794Z,22.02
2024-04-24T22:49:51.084Z,22.02
2024-04-24T22:59:57.036Z,22.02
2024-04-24T23:10:03.596Z,22.01
2024-04-24T23:20:11.500Z,22.01
2024-04-24T23:30:18.536Z,22.00
2024-04-24T23:40:25.112Z,22.01
2024-04-24T23:50:31.879Z,22.01
